Rivolto Air Base

LIPI · Friuli Venezia Giulia, 意大利

2022年12月7日 22:002022年12月8日 07:00有效
时间
星期三
22:00
星期三
23:00
星期四
00:00
星期四
01:00
星期四
02:00
星期四
03:00
星期四
04:00
星期四
05:00
星期四
06:00
代码
VFR
VFR
VFR
VFR
VFR
VFR
VFR
VFR
VFR
天气
天空晴朗
天空晴朗
天空晴朗
天空晴朗
天空晴朗
天空晴朗
天空晴朗
天空晴朗
天空晴朗
能见度
10 km+
10 km+
10 km+
10 km+
10 km+
10 km+
10 km+
10 km+
10 km+
天花板
-
-
-
-
-
-
-
-
-
060°
060°
060°
060°
060°
060°
060°
060°
060°
060°
060°
060°
060°
060°
060°
060°
060°
060°
速度
4 kt
4 kt
4 kt
4 kt
4 kt
4 kt
4 kt
4 kt
4 kt
阵风
温度/星期日

原版的

TAF LIPA 072000Z 0721/0806 06004KT CAVOK

TAF Rivolto Air Base

Rivolto Air Base是,意大利中的中型机场。 该机场有一条跑道: 6/24. 该领域的国际民航组织标志是LIPI.

这份报告是针对2022年12月7日 21:00, 当地时间在Aviano Air Base进行的。 从2022年12月7日 22:00到2022年12月8日 07:00, 当地时间有效.

预报

  • 在星期三 22:00和星期四 07:00之间

    • 风: 风来自060°方向,速度为4 kt。
    • CAVOK: 天气为CAVOK。这意味着在5.000 ft或MSA(最低安全高度)以下(以较高者为准)以下没有云。这也意味着没有观测到积雨云或高耸的积云,可见度为10 km 或者更多或更高。此外,不会有雾,降雨或其他重要天气。

白天

今天,太阳从07:36升起,在16:22降落。 这适用于Rivolto Air Base,世界夏令时可能有所不同。 当地时间与世界标准时间之间的时差为+1 小时。 当前,没有夏令时有效。

我们和第三方通过cookies跟踪您在我们网站上的互联网行为。如果你继续,我们认为你同意我们的饼干政策